sensor_id;sensor_type;location;lat;lon;timestamp;temperature;humidity
3868;DHT22;1949;48.152;11.528;2024-02-16T00:00:17;15.50;44.20
3868;DHT22;1949;48.152;11.528;2024-02-16T00:02:44;15.50;44.10
3868;DHT22;1949;48.152;11.528;2024-02-16T00:05:10;15.50;44.10
3868;DHT22;1949;48.152;11.528;2024-02-16T00:07:39;15.50;44.10
3868;DHT22;1949;48.152;11.528;2024-02-16T00:10:06;15.50;44.00
3868;DHT22;1949;48.152;11.528;2024-02-16T00:12:33;15.50;44.10
3868;DHT22;1949;48.152;11.528;2024-02-16T00:15:00;15.50;44.10
3868;DHT22;1949;48.152;11.528;2024-02-16T00:17:26;15.50;44.00
3868;DHT22;1949;48.152;11.528;2024-02-16T00:19:56;15.50;44.10
3868;DHT22;1949;48.152;11.528;2024-02-16T00:22:22;15.50;44.10
3868;DHT22;1949;48.152;11.528;2024-02-16T00:24:48;15.50;44.10
3868;DHT22;1949;48.152;11.528;2024-02-16T00:27:15;15.50;44.10
3868;DHT22;1949;48.152;11.528;2024-02-16T00:29:41;15.50;44.00
3868;DHT22;1949;48.152;11.528;2024-02-16T00:32:07;15.50;44.00
3868;DHT22;1949;48.152;11.528;2024-02-16T00:34:34;15.50;44.00
3868;DHT22;1949;48.152;11.528;2024-02-16T00:37:00;15.40;44.00
3868;DHT22;1949;48.152;11.528;2024-02-16T00:39:26;15.50;44.10
3868;DHT22;1949;48.152;11.528;2024-02-16T00:41:52;15.40;44.10
3868;DHT22;1949;48.152;11.528;2024-02-16T00:44:18;15.50;44.10
3868;DHT22;1949;48.152;11.528;2024-02-16T00:46:44;15.40;44.00
3868;DHT22;1949;48.152;11.528;2024-02-16T00:49:10;15.40;44.00
3868;DHT22;1949;48.152;11.528;2024-02-16T00:51:37;15.50;44.10
3868;DHT22;1949;48.152;11.528;2024-02-16T00:54:03;15.50;44.10
3868;DHT22;1949;48.152;11.528;2024-02-16T00:56:29;15.50;44.10
3868;DHT22;1949;48.152;11.528;2024-02-16T00:58:57;15.50;44.10
3868;DHT22;1949;48.152;11.528;2024-02-16T01:01:24;15.50;44.10
3868;DHT22;1949;48.152;11.528;2024-02-16T01:04:01;15.50;44.10
3868;DHT22;1949;48.152;11.528;2024-02-16T01:06:26;15.50;44.00
3868;DHT22;1949;48.152;11.528;2024-02-16T01:08:52;15.50;44.00
3868;DHT22;1949;48.152;11.528;2024-02-16T01:11:18;15.40;44.00
3868;DHT22;1949;48.152;11.528;2024-02-16T01:13:46;15.40;44.00
3868;DHT22;1949;48.152;11.528;2024-02-16T01:16:12;15.40;44.00
3868;DHT22;1949;48.152;11.528;2024-02-16T01:18:39;15.40;44.00
3868;DHT22;1949;48.152;11.528;2024-02-16T01:21:05;15.30;43.90
3868;DHT22;1949;48.152;11.528;2024-02-16T01:23:31;15.20;43.90
3868;DHT22;1949;48.152;11.528;2024-02-16T01:25:58;15.20;44.10
3868;DHT22;1949;48.152;11.528;2024-02-16T01:28:24;15.20;44.20
3868;DHT22;1949;48.152;11.528;2024-02-16T01:30:50;15.30;44.20
3868;DHT22;1949;48.152;11.528;2024-02-16T01:33:17;15.30;44.30
3868;DHT22;1949;48.152;11.528;2024-02-16T01:35:42;15.30;44.20
3868;DHT22;1949;48.152;11.528;2024-02-16T01:38:08;15.30;44.20
3868;DHT22;1949;48.152;11.528;2024-02-16T01:40:34;15.30;44.10
3868;DHT22;1949;48.152;11.528;2024-02-16T01:43:00;15.30;44.10
3868;DHT22;1949;48.152;11.528;2024-02-16T01:45:27;15.20;44.00
3868;DHT22;1949;48.152;11.528;2024-02-16T01:47:53;15.20;44.60
3868;DHT22;1949;48.152;11.528;2024-02-16T01:50:20;15.20;44.20
3868;DHT22;1949;48.152;11.528;2024-02-16T01:52:48;15.20;44.20
3868;DHT22;1949;48.152;11.528;2024-02-16T01:55:15;15.20;44.10
3868;DHT22;1949;48.152;11.528;2024-02-16T01:57:46;15.20;44.10
3868;DHT22;1949;48.152;11.528;2024-02-16T02:00:12;15.20;44.00
3868;DHT22;1949;48.152;11.528;2024-02-16T02:02:41;15.20;44.00
3868;DHT22;1949;48.152;11.528;2024-02-16T02:05:07;15.20;44.00
3868;DHT22;1949;48.152;11.528;2024-02-16T02:07:33;15.20;44.00
3868;DHT22;1949;48.152;11.528;2024-02-16T02:09:59;15.20;44.10
3868;DHT22;1949;48.152;11.528;2024-02-16T02:12:25;15.10;44.40
3868;DHT22;1949;48.152;11.528;2024-02-16T02:14:52;15.10;44.00
3868;DHT22;1949;48.152;11.528;2024-02-16T02:17:18;15.10;44.00
3868;DHT22;1949;48.152;11.528;2024-02-16T02:19:47;15.10;44.00
3868;DHT22;1949;48.152;11.528;2024-02-16T02:22:16;15.10;44.00
3868;DHT22;1949;48.152;11.528;2024-02-16T02:24:43;15.00;44.00
3868;DHT22;1949;48.152;11.528;2024-02-16T02:27:10;15.00;44.00
3868;DHT22;1949;48.152;11.528;2024-02-16T02:29:36;15.00;44.10
3868;DHT22;1949;48.152;11.528;2024-02-16T02:32:02;15.00;44.10
3868;DHT22;1949;48.152;11.528;2024-02-16T02:34:29;15.00;44.80
3868;DHT22;1949;48.152;11.528;2024-02-16T02:36:55;15.00;44.20
3868;DHT22;1949;48.152;11.528;2024-02-16T02:39:20;15.00;44.20
3868;DHT22;1949;48.152;11.528;2024-02-16T02:41:46;15.00;44.20
3868;DHT22;1949;48.152;11.528;2024-02-16T02:44:13;15.00;44.20
3868;DHT22;1949;48.152;11.528;2024-02-16T02:46:39;15.00;44.10
3868;DHT22;1949;48.152;11.528;2024-02-16T02:49:05;15.00;44.10
3868;DHT22;1949;48.152;11.528;2024-02-16T02:51:31;15.00;44.00
3868;DHT22;1949;48.152;11.528;2024-02-16T02:53:57;15.00;44.00
3868;DHT22;1949;48.152;11.528;2024-02-16T02:56:22;15.00;44.50
3868;DHT22;1949;48.152;11.528;2024-02-16T02:58:49;15.00;43.90
3868;DHT22;1949;48.152;11.528;2024-02-16T03:01:15;14.90;43.80
3868;DHT22;1949;48.152;11.528;2024-02-16T03:03:42;14.80;43.80
3868;DHT22;1949;48.152;11.528;2024-02-16T03:06:10;14.70;44.00
3868;DHT22;1949;48.152;11.528;2024-02-16T03:08:36;14.70;44.20
3868;DHT22;1949;48.152;11.528;2024-02-16T03:11:02;14.70;44.20
3868;DHT22;1949;48.152;11.528;2024-02-16T03:13:29;14.80;44.30
3868;DHT22;1949;48.152;11.528;2024-02-16T03:15:55;14.80;44.10
3868;DHT22;1949;48.152;11.528;2024-02-16T03:18:22;14.70;43.80
3868;DHT22;1949;48.152;11.528;2024-02-16T03:20:48;14.60;43.70
3868;DHT22;1949;48.152;11.528;2024-02-16T03:23:14;14.60;43.90
3868;DHT22;1949;48.152;11.528;2024-02-16T03:25:40;14.50;44.00
3868;DHT22;1949;48.152;11.528;2024-02-16T03:28:11;14.50;44.20
3868;DHT22;1949;48.152;11.528;2024-02-16T03:30:37;14.60;44.30
3868;DHT22;1949;48.152;11.528;2024-02-16T03:33:04;14.50;44.00
3868;DHT22;1949;48.152;11.528;2024-02-16T03:35:30;14.50;44.20
3868;DHT22;1949;48.152;11.528;2024-02-16T03:37:55;14.60;44.20
3868;DHT22;1949;48.152;11.528;2024-02-16T03:40:22;14.60;44.20
3868;DHT22;1949;48.152;11.528;2024-02-16T03:42:48;14.60;44.10
3868;DHT22;1949;48.152;11.528;2024-02-16T03:45:14;14.60;44.10
3868;DHT22;1949;48.152;11.528;2024-02-16T03:47:40;14.60;44.10
3868;DHT22;1949;48.152;11.528;2024-02-16T03:50:07;14.60;44.20
3868;DHT22;1949;48.152;11.528;2024-02-16T03:52:33;14.60;44.00
3868;DHT22;1949;48.152;11.528;2024-02-16T03:54:59;14.60;44.00
3868;DHT22;1949;48.152;11.528;2024-02-16T03:57:25;14.60;44.10
3868;DHT22;1949;48.152;11.528;2024-02-16T03:59:50;14.60;44.00
3868;DHT22;1949;48.152;11.528;2024-02-16T04:02:16;14.60;43.90
3868;DHT22;1949;48.152;11.528;2024-02-16T04:04:42;14.60;44.00
3868;DHT22;1949;48.152;11.528;2024-02-16T04:07:08;14.60;44.00
3868;DHT22;1949;48.152;11.528;2024-02-16T04:09:34;14.70;44.10
3868;DHT22;1949;48.152;11.528;2024-02-16T04:12:03;14.70;44.50
3868;DHT22;1949;48.152;11.528;2024-02-16T04:14:30;14.70;44.00
3868;DHT22;1949;48.152;11.528;2024-02-16T04:16:56;14.70;43.80
3868;DHT22;1949;48.152;11.528;2024-02-16T04:19:28;14.70;43.80
3868;DHT22;1949;48.152;11.528;2024-02-16T04:21:55;14.70;43.90
3868;DHT22;1949;48.152;11.528;2024-02-16T04:24:21;14.70;43.70
3868;DHT22;1949;48.152;11.528;2024-02-16T04:26:46;14.70;43.60
3868;DHT22;1949;48.152;11.528;2024-02-16T04:29:12;14.70;43.60
3868;DHT22;1949;48.152;11.528;2024-02-16T04:31:41;14.50;43.40
3868;DHT22;1949;48.152;11.528;2024-02-16T04:34:08;14.40;43.30
3868;DHT22;1949;48.152;11.528;2024-02-16T04:36:37;14.40;43.60
3868;DHT22;1949;48.152;11.528;2024-02-16T04:39:03;14.30;43.50
3868;DHT22;1949;48.152;11.528;2024-02-16T04:41:29;14.20;43.60
3868;DHT22;1949;48.152;11.528;2024-02-16T04:43:55;14.10;43.60
3868;DHT22;1949;48.152;11.528;2024-02-16T04:46:22;14.10;43.80
3868;DHT22;1949;48.152;11.528;2024-02-16T04:48:48;14.10;43.80
3868;DHT22;1949;48.152;11.528;2024-02-16T04:51:14;14.20;43.80
3868;DHT22;1949;48.152;11.528;2024-02-16T04:53:39;14.20;43.90
3868;DHT22;1949;48.152;11.528;2024-02-16T04:56:05;14.20;43.80
3868;DHT22;1949;48.152;11.528;2024-02-16T04:58:32;14.20;43.80
3868;DHT22;1949;48.152;11.528;2024-02-16T05:00:58;14.20;43.60
3868;DHT22;1949;48.152;11.528;2024-02-16T05:03:23;14.20;43.70
3868;DHT22;1949;48.152;11.528;2024-02-16T05:05:50;14.10;43.80
3868;DHT22;1949;48.152;11.528;2024-02-16T05:08:17;14.20;43.90
3868;DHT22;1949;48.152;11.528;2024-02-16T05:10:43;14.20;43.80
3868;DHT22;1949;48.152;11.528;2024-02-16T05:13:09;14.20;43.70
3868;DHT22;1949;48.152;11.528;2024-02-16T05:15:36;14.20;43.60
3868;DHT22;1949;48.152;11.528;2024-02-16T05:18:03;14.20;43.60
3868;DHT22;1949;48.152;11.528;2024-02-16T05:20:30;14.20;43.80
3868;DHT22;1949;48.152;11.528;2024-02-16T05:22:57;14.20;43.80
3868;DHT22;1949;48.152;11.528;2024-02-16T05:25:23;14.30;43.90
3868;DHT22;1949;48.152;11.528;2024-02-16T05:27:49;14.30;43.90
3868;DHT22;1949;48.152;11.528;2024-02-16T05:30:15;14.30;43.90
3868;DHT22;1949;48.152;11.528;2024-02-16T05:32:42;14.40;44.00
3868;DHT22;1949;48.152;11.528;2024-02-16T05:35:09;14.40;43.90
3868;DHT22;1949;48.152;11.528;2024-02-16T05:37:42;14.50;43.90
3868;DHT22;1949;48.152;11.528;2024-02-16T05:40:17;14.50;43.90
3868;DHT22;1949;48.152;11.528;2024-02-16T05:42:55;14.50;43.70
3868;DHT22;1949;48.152;11.528;2024-02-16T05:45:24;14.50;43.60
3868;DHT22;1949;48.152;11.528;2024-02-16T05:47:52;14.50;43.60
3868;DHT22;1949;48.152;11.528;2024-02-16T05:50:20;14.60;43.70
3868;DHT22;1949;48.152;11.528;2024-02-16T05:52:47;14.50;43.50
3868;DHT22;1949;48.152;11.528;2024-02-16T05:55:17;14.50;43.50
3868;DHT22;1949;48.152;11.528;2024-02-16T05:57:44;14.50;43.60
3868;DHT22;1949;48.152;11.528;2024-02-16T06:00:11;14.50;43.60
3868;DHT22;1949;48.152;11.528;2024-02-16T06:02:38;14.50;43.60
3868;DHT22;1949;48.152;11.528;2024-02-16T06:05:06;14.50;43.60
3868;DHT22;1949;48.152;11.528;2024-02-16T06:07:31;14.50;43.60
3868;DHT22;1949;48.152;11.528;2024-02-16T06:09:58;14.50;43.60
3868;DHT22;1949;48.152;11.528;2024-02-16T06:12:24;14.60;43.80
3868;DHT22;1949;48.152;11.528;2024-02-16T06:14:50;14.60;43.70
3868;DHT22;1949;48.152;11.528;2024-02-16T06:17:20;14.60;43.70
3868;DHT22;1949;48.152;11.528;2024-02-16T06:19:48;14.70;43.80
3868;DHT22;1949;48.152;11.528;2024-02-16T06:22:14;14.70;43.70
3868;DHT22;1949;48.152;11.528;2024-02-16T06:24:40;14.70;43.70
3868;DHT22;1949;48.152;11.528;2024-02-16T06:27:07;14.70;43.60
3868;DHT22;1949;48.152;11.528;2024-02-16T06:29:36;14.80;43.70
3868;DHT22;1949;48.152;11.528;2024-02-16T06:32:02;14.80;43.60
3868;DHT22;1949;48.152;11.528;2024-02-16T06:34:28;14.80;43.60
3868;DHT22;1949;48.152;11.528;2024-02-16T06:36:53;14.80;43.60
3868;DHT22;1949;48.152;11.528;2024-02-16T06:39:19;14.80;43.50
3868;DHT22;1949;48.152;11.528;2024-02-16T06:41:49;14.80;43.50
3868;DHT22;1949;48.152;11.528;2024-02-16T06:44:16;14.80;43.40
3868;DHT22;1949;48.152;11.528;2024-02-16T06:46:44;14.80;43.40
3868;DHT22;1949;48.152;11.528;2024-02-16T06:49:10;14.80;43.40
3868;DHT22;1949;48.152;11.528;2024-02-16T06:51:36;14.80;43.40
3868;DHT22;1949;48.152;11.528;2024-02-16T06:54:03;14.80;43.40
3868;DHT22;1949;48.152;11.528;2024-02-16T06:56:29;14.70;43.30
3868;DHT22;1949;48.152;11.528;2024-02-16T06:58:57;14.70;43.40
3868;DHT22;1949;48.152;11.528;2024-02-16T07:01:23;14.70;43.40
3868;DHT22;1949;48.152;11.528;2024-02-16T07:03:48;14.70;43.40
3868;DHT22;1949;48.152;11.528;2024-02-16T07:06:14;14.80;43.40
3868;DHT22;1949;48.152;11.528;2024-02-16T07:08:40;14.80;43.40
3868;DHT22;1949;48.152;11.528;2024-02-16T07:11:06;14.80;43.40
3868;DHT22;1949;48.152;11.528;2024-02-16T07:13:35;14.80;43.40
3868;DHT22;1949;48.152;11.528;2024-02-16T07:16:02;14.80;43.40
3868;DHT22;1949;48.152;11.528;2024-02-16T07:18:30;14.90;43.40
3868;DHT22;1949;48.152;11.528;2024-02-16T07:20:56;14.90;43.40
3868;DHT22;1949;48.152;11.528;2024-02-16T07:23:24;14.90;43.30
3868;DHT22;1949;48.152;11.528;2024-02-16T07:25:50;14.90;43.20
3868;DHT22;1949;48.152;11.528;2024-02-16T07:28:16;15.00;43.30
3868;DHT22;1949;48.152;11.528;2024-02-16T07:30:41;15.00;43.30
3868;DHT22;1949;48.152;11.528;2024-02-16T07:33:08;15.00;43.20
3868;DHT22;1949;48.152;11.528;2024-02-16T07:35:34;15.10;43.20
3868;DHT22;1949;48.152;11.528;2024-02-16T07:38:04;15.10;43.20
3868;DHT22;1949;48.152;11.528;2024-02-16T07:40:30;15.10;43.00
3868;DHT22;1949;48.152;11.528;2024-02-16T07:42:56;15.00;42.90
3868;DHT22;1949;48.152;11.528;2024-02-16T07:45:23;14.90;42.90
3868;DHT22;1949;48.152;11.528;2024-02-16T07:47:49;14.90;43.00
3868;DHT22;1949;48.152;11.528;2024-02-16T07:50:19;14.90;43.20
3868;DHT22;1949;48.152;11.528;2024-02-16T07:52:45;14.90;43.20
3868;DHT22;1949;48.152;11.528;2024-02-16T07:55:12;15.00;43.30
3868;DHT22;1949;48.152;11.528;2024-02-16T07:57:38;15.00;43.20
3868;DHT22;1949;48.152;11.528;2024-02-16T08:00:07;15.10;43.20
3868;DHT22;1949;48.152;11.528;2024-02-16T08:02:35;15.10;43.10
3868;DHT22;1949;48.152;11.528;2024-02-16T08:05:01;15.10;43.00
3868;DHT22;1949;48.152;11.528;2024-02-16T08:07:26;15.20;42.90
3868;DHT22;1949;48.152;11.528;2024-02-16T08:09:52;15.20;42.90
3868;DHT22;1949;48.152;11.528;2024-02-16T08:12:18;15.20;43.00
3868;DHT22;1949;48.152;11.528;2024-02-16T08:14:46;15.20;42.90
3868;DHT22;1949;48.152;11.528;2024-02-16T08:17:12;15.30;42.90
3868;DHT22;1949;48.152;11.528;2024-02-16T08:19:38;15.30;42.70
3868;DHT22;1949;48.152;11.528;2024-02-16T08:22:05;15.20;42.60
3868;DHT22;1949;48.152;11.528;2024-02-16T08:24:37;15.20;42.70
3868;DHT22;1949;48.152;11.528;2024-02-16T08:27:04;15.20;42.70
3868;DHT22;1949;48.152;11.528;2024-02-16T08:29:30;15.20;42.60
3868;DHT22;1949;48.152;11.528;2024-02-16T08:31:56;15.10;42.60
3868;DHT22;1949;48.152;11.528;2024-02-16T08:34:22;15.10;42.60
3868;DHT22;1949;48.152;11.528;2024-02-16T08:36:48;15.20;42.80
3868;DHT22;1949;48.152;11.528;2024-02-16T08:39:15;15.20;43.40
3868;DHT22;1949;48.152;11.528;2024-02-16T08:41:41;15.20;42.70
3868;DHT22;1949;48.152;11.528;2024-02-16T08:44:09;15.30;42.70
3868;DHT22;1949;48.152;11.528;2024-02-16T08:46:39;15.30;42.70
3868;DHT22;1949;48.152;11.528;2024-02-16T08:49:05;15.30;42.50
3868;DHT22;1949;48.152;11.528;2024-02-16T08:51:34;15.30;42.50
3868;DHT22;1949;48.152;11.528;2024-02-16T08:54:00;15.40;42.60
3868;DHT22;1949;48.152;11.528;2024-02-16T08:56:27;15.40;42.60
3868;DHT22;1949;48.152;11.528;2024-02-16T08:58:53;15.40;42.50
3868;DHT22;1949;48.152;11.528;2024-02-16T09:01:37;15.50;42.50
3868;DHT22;1949;48.152;11.528;2024-02-16T09:04:03;15.60;42.50
3868;DHT22;1949;48.152;11.528;2024-02-16T09:06:29;15.60;42.50
3868;DHT22;1949;48.152;11.528;2024-02-16T09:08:55;15.70;42.40
3868;DHT22;1949;48.152;11.528;2024-02-16T09:11:22;15.70;42.30
3868;DHT22;1949;48.152;11.528;2024-02-16T09:13:49;15.80;42.30
3868;DHT22;1949;48.152;11.528;2024-02-16T09:16:16;15.80;42.10
3868;DHT22;1949;48.152;11.528;2024-02-16T09:18:42;15.90;42.00
3868;DHT22;1949;48.152;11.528;2024-02-16T09:21:08;15.90;41.90
3868;DHT22;1949;48.152;11.528;2024-02-16T09:23:39;16.00;42.00
3868;DHT22;1949;48.152;11.528;2024-02-16T09:26:05;16.00;41.80
3868;DHT22;1949;48.152;11.528;2024-02-16T09:28:31;16.00;41.80
3868;DHT22;1949;48.152;11.528;2024-02-16T09:30:57;16.00;41.60
3868;DHT22;1949;48.152;11.528;2024-02-16T09:33:23;16.00;41.60
3868;DHT22;1949;48.152;11.528;2024-02-16T09:35:53;16.00;41.50
3868;DHT22;1949;48.152;11.528;2024-02-16T09:38:19;16.00;41.50
3868;DHT22;1949;48.152;11.528;2024-02-16T09:40:45;16.00;41.50
3868;DHT22;1949;48.152;11.528;2024-02-16T09:43:24;16.00;41.40
3868;DHT22;1949;48.152;11.528;2024-02-16T09:45:55;16.00;41.40
3868;DHT22;1949;48.152;11.528;2024-02-16T09:48:23;16.10;41.50
3868;DHT22;1949;48.152;11.528;2024-02-16T09:50:54;16.10;41.40
3868;DHT22;1949;48.152;11.528;2024-02-16T09:53:20;16.20;41.40
3868;DHT22;1949;48.152;11.528;2024-02-16T09:55:49;16.20;42.00
3868;DHT22;1949;48.152;11.528;2024-02-16T09:58:16;16.20;41.40
3868;DHT22;1949;48.152;11.528;2024-02-16T10:00:47;16.30;41.50
3868;DHT22;1949;48.152;11.528;2024-02-16T10:03:25;16.30;41.50
3868;DHT22;1949;48.152;11.528;2024-02-16T10:05:51;16.40;41.70
3868;DHT22;1949;48.152;11.528;2024-02-16T10:08:19;16.40;41.60
3868;DHT22;1949;48.152;11.528;2024-02-16T10:10:44;16.40;41.60
3868;DHT22;1949;48.152;11.528;2024-02-16T10:13:10;16.50;41.50
3868;DHT22;1949;48.152;11.528;2024-02-16T10:15:37;16.50;41.50
3868;DHT22;1949;48.152;11.528;2024-02-16T10:18:06;16.50;41.40
3868;DHT22;1949;48.152;11.528;2024-02-16T10:20:34;16.60;41.40
3868;DHT22;1949;48.152;11.528;2024-02-16T10:23:07;16.60;41.40
3868;DHT22;1949;48.152;11.528;2024-02-16T10:25:34;16.70;41.30
3868;DHT22;1949;48.152;11.528;2024-02-16T10:28:04;16.70;41.20
3868;DHT22;1949;48.152;11.528;2024-02-16T10:30:37;16.70;41.10
3868;DHT22;1949;48.152;11.528;2024-02-16T10:33:07;16.70;41.10
3868;DHT22;1949;48.152;11.528;2024-02-16T10:35:35;16.80;41.10
3868;DHT22;1949;48.152;11.528;2024-02-16T10:38:05;16.80;40.90
3868;DHT22;1949;48.152;11.528;2024-02-16T10:40:41;16.80;40.80
3868;DHT22;1949;48.152;11.528;2024-02-16T10:43:09;16.80;40.70
3868;DHT22;1949;48.152;11.528;2024-02-16T10:45:36;16.90;41.40
3868;DHT22;1949;48.152;11.528;2024-02-16T10:48:03;16.90;40.80
3868;DHT22;1949;48.152;11.528;2024-02-16T10:50:36;17.00;40.80
3868;DHT22;1949;48.152;11.528;2024-02-16T10:53:24;17.00;40.70
3868;DHT22;1949;48.152;11.528;2024-02-16T10:55:50;17.00;40.70
3868;DHT22;1949;48.152;11.528;2024-02-16T10:58:20;17.10;40.60
3868;DHT22;1949;48.152;11.528;2024-02-16T11:00:55;17.10;40.50
3868;DHT22;1949;48.152;11.528;2024-02-16T11:03:25;17.10;40.30
3868;DHT22;1949;48.152;11.528;2024-02-16T11:05:52;17.20;40.30
3868;DHT22;1949;48.152;11.528;2024-02-16T11:08:19;17.20;40.30
3868;DHT22;1949;48.152;11.528;2024-02-16T11:10:59;17.20;40.20
3868;DHT22;1949;48.152;11.528;2024-02-16T11:13:26;17.30;40.40
3868;DHT22;1949;48.152;11.528;2024-02-16T11:16:01;17.30;40.30
3868;DHT22;1949;48.152;11.528;2024-02-16T11:18:32;17.40;40.30
3868;DHT22;1949;48.152;11.528;2024-02-16T11:21:01;17.40;40.10
3868;DHT22;1949;48.152;11.528;2024-02-16T11:23:28;17.50;40.10
3868;DHT22;1949;48.152;11.528;2024-02-16T11:26:01;17.50;40.10
3868;DHT22;1949;48.152;11.528;2024-02-16T11:28:34;17.50;40.10
3868;DHT22;1949;48.152;11.528;2024-02-16T11:31:01;17.60;40.10
3868;DHT22;1949;48.152;11.528;2024-02-16T11:33:28;17.70;40.20
3868;DHT22;1949;48.152;11.528;2024-02-16T11:35:58;17.70;40.10
3868;DHT22;1949;48.152;11.528;2024-02-16T11:38:25;17.80;40.10
3868;DHT22;1949;48.152;11.528;2024-02-16T11:41:02;17.90;40.20
3868;DHT22;1949;48.152;11.528;2024-02-16T11:43:29;18.00;40.10
3868;DHT22;1949;48.152;11.528;2024-02-16T11:45:56;18.20;40.10
3868;DHT22;1949;48.152;11.528;2024-02-16T11:48:27;18.20;40.10
3868;DHT22;1949;48.152;11.528;2024-02-16T11:51:02;18.40;40.10
3868;DHT22;1949;48.152;11.528;2024-02-16T11:53:31;18.50;40.10
3868;DHT22;1949;48.152;11.528;2024-02-16T11:55:59;18.60;40.00
3868;DHT22;1949;48.152;11.528;2024-02-16T11:58:26;18.70;40.00
3868;DHT22;1949;48.152;11.528;2024-02-16T12:00:52;18.90;39.80
3868;DHT22;1949;48.152;11.528;2024-02-16T12:03:25;19.00;39.80
3868;DHT22;1949;48.152;11.528;2024-02-16T12:05:57;19.20;39.80
3868;DHT22;1949;48.152;11.528;2024-02-16T12:08:23;19.30;39.70
3868;DHT22;1949;48.152;11.528;2024-02-16T12:10:50;19.40;39.70
3868;DHT22;1949;48.152;11.528;2024-02-16T12:13:18;19.50;39.50
3868;DHT22;1949;48.152;11.528;2024-02-16T12:15:45;19.60;39.40
3868;DHT22;1949;48.152;11.528;2024-02-16T12:18:18;19.70;39.30
3868;DHT22;1949;48.152;11.528;2024-02-16T12:20:44;19.70;39.20
3868;DHT22;1949;48.152;11.528;2024-02-16T12:23:14;19.70;39.20
3868;DHT22;1949;48.152;11.528;2024-02-16T12:25:39;19.70;39.10
3868;DHT22;1949;48.152;11.528;2024-02-16T12:28:05;19.70;39.20
3868;DHT22;1949;48.152;11.528;2024-02-16T12:30:36;19.70;39.10
3868;DHT22;1949;48.152;11.528;2024-02-16T12:33:03;19.70;39.20
3868;DHT22;1949;48.152;11.528;2024-02-16T12:35:29;19.60;39.20
3868;DHT22;1949;48.152;11.528;2024-02-16T12:37:55;19.60;39.20
3868;DHT22;1949;48.152;11.528;2024-02-16T12:40:22;19.60;39.20
3868;DHT22;1949;48.152;11.528;2024-02-16T12:42:47;19.60;39.10
3868;DHT22;1949;48.152;11.528;2024-02-16T12:45:13;19.60;39.10
3868;DHT22;1949;48.152;11.528;2024-02-16T12:47:41;19.60;39.20
3868;DHT22;1949;48.152;11.528;2024-02-16T12:50:07;19.70;39.20
3868;DHT22;1949;48.152;11.528;2024-02-16T12:52:33;19.70;39.30
3868;DHT22;1949;48.152;11.528;2024-02-16T12:55:01;19.80;39.20
3868;DHT22;1949;48.152;11.528;2024-02-16T12:57:27;20.00;39.40
3868;DHT22;1949;48.152;11.528;2024-02-16T12:59:54;20.20;39.40
3868;DHT22;1949;48.152;11.528;2024-02-16T13:02:20;20.30;39.00
3868;DHT22;1949;48.152;11.528;2024-02-16T13:04:46;20.40;38.70
3868;DHT22;1949;48.152;11.528;2024-02-16T13:07:11;20.50;38.60
3868;DHT22;1949;48.152;11.528;2024-02-16T13:09:37;20.50;38.40
3868;DHT22;1949;48.152;11.528;2024-02-16T13:12:03;20.70;38.40
3868;DHT22;1949;48.152;11.528;2024-02-16T13:14:29;20.80;38.40
3868;DHT22;1949;48.152;11.528;2024-02-16T13:16:54;21.00;38.30
3868;DHT22;1949;48.152;11.528;2024-02-16T13:19:20;21.20;38.40
3868;DHT22;1949;48.152;11.528;2024-02-16T13:21:46;21.40;38.40
3868;DHT22;1949;48.152;11.528;2024-02-16T13:24:11;21.70;38.30
3868;DHT22;1949;48.152;11.528;2024-02-16T13:26:38;21.90;38.00
3868;DHT22;1949;48.152;11.528;2024-02-16T13:29:04;22.20;37.80
3868;DHT22;1949;48.152;11.528;2024-02-16T13:31:30;22.40;37.80
3868;DHT22;1949;48.152;11.528;2024-02-16T13:33:57;22.50;37.50
3868;DHT22;1949;48.152;11.528;2024-02-16T13:36:23;22.60;37.40
3868;DHT22;1949;48.152;11.528;2024-02-16T13:38:48;22.60;37.20
3868;DHT22;1949;48.152;11.528;2024-02-16T13:41:14;22.60;37.10
3868;DHT22;1949;48.152;11.528;2024-02-16T13:43:40;22.50;37.10
3868;DHT22;1949;48.152;11.528;2024-02-16T13:46:06;22.50;37.20
3868;DHT22;1949;48.152;11.528;2024-02-16T13:48:31;22.50;37.10
3868;DHT22;1949;48.152;11.528;2024-02-16T13:50:58;22.50;37.10
3868;DHT22;1949;48.152;11.528;2024-02-16T13:53:25;22.50;37.10
3868;DHT22;1949;48.152;11.528;2024-02-16T13:55:51;22.40;37.00
3868;DHT22;1949;48.152;11.528;2024-02-16T13:58:17;22.40;37.10
3868;DHT22;1949;48.152;11.528;2024-02-16T14:00:43;22.30;37.20
3868;DHT22;1949;48.152;11.528;2024-02-16T14:03:10;22.20;37.00
3868;DHT22;1949;48.152;11.528;2024-02-16T14:05:38;22.10;37.20
3868;DHT22;1949;48.152;11.528;2024-02-16T14:08:05;21.90;36.70
3868;DHT22;1949;48.152;11.528;2024-02-16T14:10:31;21.70;36.80
3868;DHT22;1949;48.152;11.528;2024-02-16T14:13:01;21.50;37.00
3868;DHT22;1949;48.152;11.528;2024-02-16T14:15:26;21.40;37.00
3868;DHT22;1949;48.152;11.528;2024-02-16T14:17:52;21.20;37.00
3868;DHT22;1949;48.152;11.528;2024-02-16T14:20:18;21.00;37.20
3868;DHT22;1949;48.152;11.528;2024-02-16T14:22:46;20.90;37.30
3868;DHT22;1949;48.152;11.528;2024-02-16T14:25:12;20.80;37.40
3868;DHT22;1949;48.152;11.528;2024-02-16T14:27:39;20.80;37.60
3868;DHT22;1949;48.152;11.528;2024-02-16T14:30:05;20.70;37.60
3868;DHT22;1949;48.152;11.528;2024-02-16T14:32:31;20.80;37.80
3868;DHT22;1949;48.152;11.528;2024-02-16T14:34:57;20.90;37.90
3868;DHT22;1949;48.152;11.528;2024-02-16T14:37:23;21.00;38.00
3868;DHT22;1949;48.152;11.528;2024-02-16T14:39:48;21.30;38.10
3868;DHT22;1949;48.152;11.528;2024-02-16T14:42:15;21.50;37.80
3868;DHT22;1949;48.152;11.528;2024-02-16T14:44:41;21.60;37.50
3868;DHT22;1949;48.152;11.528;2024-02-16T14:47:06;21.80;37.40
3868;DHT22;1949;48.152;11.528;2024-02-16T14:49:32;21.90;37.50
3868;DHT22;1949;48.152;11.528;2024-02-16T14:51:58;22.00;37.20
3868;DHT22;1949;48.152;11.528;2024-02-16T14:54:24;22.20;37.20
3868;DHT22;1949;48.152;11.528;2024-02-16T14:56:52;22.20;37.10
3868;DHT22;1949;48.152;11.528;2024-02-16T14:59:19;22.30;37.00
3868;DHT22;1949;48.152;11.528;2024-02-16T15:01:44;22.20;36.90
3868;DHT22;1949;48.152;11.528;2024-02-16T15:04:11;22.20;36.90
3868;DHT22;1949;48.152;11.528;2024-02-16T15:06:36;22.20;36.90
3868;DHT22;1949;48.152;11.528;2024-02-16T15:09:02;22.30;37.10
3868;DHT22;1949;48.152;11.528;2024-02-16T15:11:32;22.20;36.90
3868;DHT22;1949;48.152;11.528;2024-02-16T15:13:57;22.10;36.60
3868;DHT22;1949;48.152;11.528;2024-02-16T15:16:25;21.90;36.60
3868;DHT22;1949;48.152;11.528;2024-02-16T15:18:51;21.80;36.70
3868;DHT22;1949;48.152;11.528;2024-02-16T15:21:16;21.70;36.90
3868;DHT22;1949;48.152;11.528;2024-02-16T15:23:42;21.60;37.00
3868;DHT22;1949;48.152;11.528;2024-02-16T15:26:11;21.50;37.00
3868;DHT22;1949;48.152;11.528;2024-02-16T15:28:37;21.40;37.00
3868;DHT22;1949;48.152;11.528;2024-02-16T15:31:04;21.30;37.10
3868;DHT22;1949;48.152;11.528;2024-02-16T15:33:30;21.20;37.20
3868;DHT22;1949;48.152;11.528;2024-02-16T15:35:56;21.10;37.20
3868;DHT22;1949;48.152;11.528;2024-02-16T15:38:25;20.90;37.20
3868;DHT22;1949;48.152;11.528;2024-02-16T15:40:50;20.80;37.20
3868;DHT22;1949;48.152;11.528;2024-02-16T15:43:16;20.60;37.20